WXM80 ListenWXM80 Stop

You find our weather info also at:

UK Metoffice

WeatherCloud

Weather Underground

Northeastern Weather Network

AWEKAS

Citizen Weather Observer Program (CWOP)

HAMweather, WeatherForYou, PWS Weather


Weather Underground History page Text

Daily Summary for July 13, 2016 Units:  English    Metric   Both
« Previous Day
Next Day »
Daily Weekly Monthly Yearly Custom
  High: Low: Average:
Temperature: 89.4 °F 69.1 °F 77.9 °F
Dew Point: 70.6 °F 64.7 °F 67.7 °F
Humidity: 94 % 45 % 73 %
Wind Speed: 5.8 mph 0.0 mph 1.3 mph
Wind Gust: 14.0 mph - -
Wind:- - SSW
Pressure: 30.05 in 29.97 in -
Precipitation: 0.00 in    
Historical Graphs
 
 
Tabular Data for July 13, 2016
Time Temperature Dew Point Pressure Wind Wind Speed Wind Gust Humidity Rainfall Rate (Hourly)
00:02 72.6 °F 67.5 °F 30.04 in SW 2.3 mph 4.6 mph 84 % 0.00 in
00:07 72.6 °F 67.5 °F 30.04 in SE 0.5 mph 2.3 mph 84 % 0.00 in
00:12 72.5 °F 67.4 °F 30.04 in SW 1.8 mph 3.5 mph 84 % 0.00 in
00:17 72.4 °F 67.3 °F 30.04 in SSE 0.6 mph 2.3 mph 84 % 0.00 in
00:22 72.4 °F 67.3 °F 30.03 in SW 1.4 mph 7.0 mph 84 % 0.00 in
00:27 72.3 °F 67.2 °F 30.04 in SE 1.1 mph 2.3 mph 84 % 0.00 in
00:32 72.2 °F 67.1 °F 30.03 in SW 2.0 mph 4.6 mph 84 % 0.00 in
00:37 72.1 °F 67.3 °F 30.03 in SSW 1.4 mph 3.5 mph 85 % 0.00 in
00:43 72.0 °F 67.2 °F 30.04 in SW 0.9 mph 3.5 mph 85 % 0.00 in
00:48 71.9 °F 67.5 °F 30.04 in SW 0.1 mph 3.5 mph 86 % 0.00 in
00:53 71.9 °F 67.5 °F 30.04 in WSW 0.5 mph 2.3 mph 86 % 0.00 in
00:58 71.9 °F 67.5 °F 30.04 in SW 2.0 mph 6.0 mph 86 % 0.00 in
01:03 71.8 °F 67.4 °F 30.04 in SW 0.9 mph 5.8 mph 86 % 0.00 in
01:08 71.7 °F 67.6 °F 30.04 in WSW 1.2 mph 3.5 mph 87 % 0.00 in
01:13 71.7 °F 67.6 °F 30.04 in SSW 0.7 mph 2.3 mph 87 % 0.00 in
01:18 71.7 °F 67.6 °F 30.04 in WSW 2.2 mph 4.0 mph 87 % 0.00 in
01:23 71.6 °F 67.5 °F 30.04 in SW 0.2 mph 1.2 mph 87 % 0.00 in
01:28 71.6 °F 67.5 °F 30.04 in WSW 1.2 mph 3.5 mph 87 % 0.00 in
01:34 71.5 °F 67.4 °F 30.04 in SW 0.7 mph 2.3 mph 87 % 0.00 in
01:39 71.4 °F 67.7 °F 30.04 in SW 0.1 mph 2.3 mph 88 % 0.00 in
01:44 71.4 °F 67.7 °F 30.04 in WNW 0.2 mph 1.2 mph 88 % 0.00 in
01:49 71.3 °F 67.6 °F 30.04 in SW 0.5 mph 3.5 mph 88 % 0.00 in
01:54 71.3 °F 67.6 °F 30.05 in Calm   1.2 mph 88 % 0.00 in
01:59 71.2 °F 67.5 °F 30.04 in Calm     88 % 0.00 in
02:09 71.1 °F 67.4 °F 30.05 in SW 0.7 mph 2.0 mph 88 % 0.00 in
02:14 71.1 °F 67.7 °F 30.04 in Calm     89 % 0.00 in
02:19 71.0 °F 67.6 °F 30.05 in WSW 0.4 mph 1.2 mph 89 % 0.00 in
02:25 70.9 °F 67.5 °F 30.05 in Calm   2.3 mph 89 % 0.00 in
02:30 70.9 °F 67.5 °F 30.05 in WSW 0.1 mph 2.3 mph 89 % 0.00 in
02:35 70.8 °F 67.4 °F 30.05 in WSW 0.2 mph 2.3 mph 89 % 0.00 in
02:40 70.8 °F 67.4 °F 30.05 in Calm   1.2 mph 89 % 0.00 in
02:45 70.7 °F 67.3 °F 30.05 in Calm     89 % 0.00 in
02:50 70.6 °F 67.2 °F 30.05 in WSW 0.2 mph 1.2 mph 89 % 0.00 in
02:55 70.6 °F 67.2 °F 30.05 in Calm     89 % 0.00 in
03:00 70.5 °F 67.4 °F 30.04 in West 0.2 mph 2.3 mph 90 % 0.00 in
03:05 70.4 °F 67.3 °F 30.04 in Calm   1.2 mph 90 % 0.00 in
03:10 70.4 °F 67.3 °F 30.05 in SW 1.1 mph 1.1 mph 90 % 0.00 in
03:15 70.3 °F 67.2 °F 30.04 in Calm   2.0 mph 90 % 0.00 in
03:21 70.3 °F 67.2 °F 30.04 in Calm   1.0 mph 90 % 0.00 in
03:25 70.2 °F 67.1 °F 30.04 in Calm   2.3 mph 90 % 0.00 in
03:30 70.2 °F 67.1 °F 30.04 in Calm   1.0 mph 90 % 0.00 in
03:35 70.1 °F 67.3 °F 30.04 in Calm   1.0 mph 91 % 0.00 in
03:40 70.1 °F 67.3 °F 30.04 in Calm   1.0 mph 91 % 0.00 in
03:45 70.0 °F 67.3 °F 30.04 in Calm   1.0 mph 91 % 0.00 in
03:50 70.0 °F 67.2 °F 30.04 in Calm   1.0 mph 91 % 0.00 in
03:55 69.9 °F 67.2 °F 30.04 in Calm     91 % 0.00 in
04:01 69.8 °F 67.1 °F 30.04 in SW 0.1 mph 1.0 mph 91 % 0.00 in
04:06 69.8 °F 67.1 °F 30.04 in Calm     91 % 0.00 in
04:11 69.7 °F 67.0 °F 30.03 in Calm     91 % 0.00 in
04:16 69.7 °F 67.0 °F 30.03 in Calm     91 % 0.00 in
04:21 69.6 °F 66.9 °F 30.04 in Calm     91 % 0.00 in
04:26 69.6 °F 66.9 °F 30.03 in Calm     91 % 0.00 in
04:31 69.5 °F 66.8 °F 30.03 in Calm     91 % 0.00 in
04:36 69.5 °F 67.1 °F 30.03 in Calm     92 % 0.00 in
04:41 69.4 °F 67.0 °F 30.03 in Calm     92 % 0.00 in
04:47 69.4 °F 67.0 °F 30.03 in Calm   1.2 mph 92 % 0.00 in
04:52 69.4 °F 67.0 °F 30.03 in SW 0.2 mph 1.2 mph 92 % 0.00 in
04:57 69.3 °F 66.9 °F 30.03 in SW 0.2 mph 1.2 mph 92 % 0.00 in
05:02 69.3 °F 66.9 °F 30.04 in Calm     92 % 0.00 in
05:07 69.3 °F 66.9 °F 30.04 in Calm   2.3 mph 92 % 0.00 in
05:12 69.3 °F 66.9 °F 30.04 in SW 0.2 mph 1.2 mph 92 % 0.00 in
05:17 69.2 °F 66.8 °F 30.04 in Calm     92 % 0.00 in
05:22 69.2 °F 66.8 °F 30.04 in Calm     92 % 0.00 in
05:27 69.2 °F 67.1 °F 30.04 in Calm   1.2 mph 93 % 0.00 in
05:32 69.2 °F 66.8 °F 30.04 in SSW 0.3 mph 1.2 mph 92 % 0.00 in
05:38 69.2 °F 66.8 °F 30.04 in Calm   1.2 mph 92 % 0.00 in
05:43 69.2 °F 66.8 °F 30.04 in Calm     92 % 0.00 in
05:48 69.1 °F 67.0 °F 30.04 in SSW 0.1 mph 1.2 mph 93 % 0.00 in
05:53 69.1 °F 67.0 °F 30.04 in Calm     93 % 0.00 in
05:58 69.1 °F 67.0 °F 30.04 in SSW 0.4 mph 2.3 mph 93 % 0.00 in
06:03 69.1 °F 67.0 °F 30.04 in SW 0.2 mph 1.2 mph 93 % 0.00 in
06:08 69.1 °F 67.0 °F 30.04 in SW 0.1 mph 1.2 mph 93 % 0.00 in
06:13 69.2 °F 67.1 °F 30.04 in SW 0.1 mph 1.2 mph 93 % 0.00 in
06:18 69.2 °F 67.1 °F 30.04 in SSW 0.2 mph 2.3 mph 93 % 0.00 in
06:23 69.3 °F 67.2 °F 30.04 in WSW 0.3 mph 2.0 mph 93 % 0.00 in
06:29 69.3 °F 67.5 °F 30.04 in Calm   1.2 mph 94 % 0.00 in
06:34 69.5 °F 67.7 °F 30.04 in East 0.1 mph 1.2 mph 94 % 0.00 in
06:39 69.6 °F 67.8 °F 30.04 in West 0.6 mph 2.3 mph 94 % 0.00 in
06:44 69.8 °F 68.0 °F 30.04 in South 0.2 mph 1.2 mph 94 % 0.00 in
06:49 70.1 °F 68.0 °F 30.04 in SSW 0.2 mph 3.0 mph 93 % 0.00 in
06:54 70.4 °F 68.3 °F 30.04 in SSE 0.5 mph 3.0 mph 93 % 0.00 in
06:59 70.9 °F 68.5 °F 30.04 in SE 0.9 mph 3.0 mph 92 % 0.00 in
07:04 71.4 °F 68.6 °F 30.05 in SW 0.8 mph 3.5 mph 91 % 0.00 in
07:09 71.7 °F 68.9 °F 30.05 in Calm   2.3 mph 91 % 0.00 in
07:14 72.0 °F 69.2 °F 30.05 in WSW 0.9 mph 3.5 mph 91 % 0.00 in
07:20 72.5 °F 69.1 °F 30.05 in WSW 1.1 mph 5.8 mph 89 % 0.00 in
07:25 72.9 °F 69.1 °F 30.05 in SW 0.6 mph 4.6 mph 88 % 0.00 in
07:30 73.3 °F 69.5 °F 30.05 in SW 2.2 mph 4.6 mph 88 % 0.00 in
07:35 73.7 °F 69.6 °F 30.04 in SW 0.1 mph 1.2 mph 87 % 0.00 in
07:40 73.9 °F 69.8 °F 30.05 in WSW 0.2 mph 1.2 mph 87 % 0.00 in
07:45 74.1 °F 69.6 °F 30.04 in SSW 1.2 mph 4.0 mph 86 % 0.00 in
07:50 74.2 °F 69.4 °F 30.05 in SW 1.2 mph 3.0 mph 85 % 0.00 in
07:55 74.4 °F 69.2 °F 30.04 in SSE 0.6 mph 3.5 mph 84 % 0.00 in
08:00 74.4 °F 69.2 °F 30.05 in SSE 0.8 mph 2.3 mph 84 % 0.00 in
08:05 74.5 °F 69.3 °F 30.04 in WSW 1.0 mph 2.3 mph 84 % 0.00 in
08:11 74.6 °F 69.1 °F 30.04 in SW 1.2 mph 2.3 mph 83 % 0.00 in
08:16 74.8 °F 69.3 °F 30.04 in SSW 2.0 mph 6.0 mph 83 % 0.00 in
08:21 74.9 °F 69.4 °F 30.05 in SW 2.0 mph 5.0 mph 83 % 0.00 in
08:26 74.9 °F 69.0 °F 30.04 in SW 2.5 mph 4.6 mph 82 % 0.00 in
08:31 75.1 °F 69.2 °F 30.04 in SW 2.0 mph 4.0 mph 82 % 0.00 in
08:36 75.2 °F 69.3 °F 30.05 in WSW 2.0 mph 5.0 mph 82 % 0.00 in
08:41 75.4 °F 69.5 °F 30.05 in SW 1.0 mph 4.0 mph 82 % 0.00 in
08:46 75.5 °F 69.3 °F 30.05 in SW 2.0 mph 6.0 mph 81 % 0.00 in
08:51 75.8 °F 69.2 °F 30.05 in SW 2.0 mph 8.0 mph 80 % 0.00 in
08:56 76.0 °F 69.4 °F 30.05 in WSW 0.3 mph 4.6 mph 80 % 0.00 in
09:01 76.2 °F 69.2 °F 30.05 in WSW 1.2 mph 4.6 mph 79 % 0.00 in
09:06 76.6 °F 69.2 °F 30.05 in WSW 1.9 mph 3.5 mph 78 % 0.00 in
09:11 76.8 °F 69.4 °F 30.05 in SW 0.2 mph 2.3 mph 78 % 0.00 in
09:16 77.1 °F 68.9 °F 30.05 in SW 3.7 mph 5.8 mph 76 % 0.00 in
09:21 77.3 °F 69.1 °F 30.05 in SW 3.9 mph 5.8 mph 76 % 0.00 in
09:26 77.5 °F 69.3 °F 30.05 in SW 2.2 mph 4.6 mph 76 % 0.00 in
09:31 77.7 °F 69.5 °F 30.05 in WSW 4.0 mph 4.6 mph 76 % 0.00 in
09:36 78.0 °F 69.4 °F 30.05 in SW 1.7 mph 4.6 mph 75 % 0.00 in
09:41 78.3 °F 69.3 °F 30.05 in SSW 1.7 mph 5.8 mph 74 % 0.00 in
09:47 78.6 °F 69.6 °F 30.05 in SW 3.0 mph 8.1 mph 74 % 0.00 in
09:52 79.1 °F 70.1 °F 30.05 in SE 0.1 mph 3.5 mph 74 % 0.00 in
09:57 79.7 °F 69.5 °F 30.05 in SSW 2.2 mph 5.8 mph 71 % 0.00 in
10:02 80.4 °F 69.3 °F 30.05 in WSW 2.2 mph 3.5 mph 69 % 0.00 in
10:07 81.0 °F 68.1 °F 30.04 in SE 0.6 mph 2.3 mph 65 % 0.00 in
10:12 81.6 °F 69.6 °F 30.04 in SW 1.8 mph 3.5 mph 67 % 0.00 in
10:17 82.3 °F 69.4 °F 30.04 in WSW 3.1 mph 3.5 mph 65 % 0.00 in
10:22 83.0 °F 69.6 °F 30.04 in SW 2.7 mph 3.5 mph 64 % 0.00 in
10:27 83.6 °F 68.7 °F 30.04 in WNW 5.8 mph 10.4 mph 61 % 0.00 in
10:32 84.2 °F 68.8 °F 30.04 in SW 1.9 mph 5.8 mph 60 % 0.00 in
10:38 84.7 °F 68.8 °F 30.05 in SSE 1.4 mph 3.5 mph 59 % 0.00 in
10:43 85.0 °F 68.1 °F 30.04 in SE 1.4 mph 6.9 mph 57 % 0.00 in
10:48 85.3 °F 69.8 °F 30.04 in SE 0.8 mph 4.0 mph 60 % 0.00 in
10:53 85.6 °F 69.6 °F 30.04 in SW 0.8 mph 3.5 mph 59 % 0.00 in
10:58 85.8 °F 68.3 °F 30.04 in SSW 0.5 mph 2.3 mph 56 % 0.00 in
11:03 85.8 °F 68.3 °F 30.05 in SSW 1.7 mph 3.5 mph 56 % 0.00 in
11:08 86.0 °F 67.4 °F 30.04 in SSE 2.1 mph 5.8 mph 54 % 0.00 in
11:13 86.0 °F 70.0 °F 30.04 in SW 0.8 mph 4.6 mph 59 % 0.00 in
11:18 86.6 °F 70.6 °F 30.04 in SSW 1.3 mph 2.0 mph 59 % 0.00 in
11:23 87.0 °F 68.9 °F 30.05 in SW 2.0 mph 4.6 mph 55 % 0.00 in
11:29 87.5 °F 69.3 °F 30.05 in SSW 3.9 mph 9.2 mph 55 % 0.00 in
11:34 88.1 °F 68.8 °F 30.05 in SSW 2.1 mph 6.9 mph 53 % 0.00 in
11:39 88.1 °F 68.3 °F 30.04 in SW 0.5 mph 3.5 mph 52 % 0.00 in
11:44 88.2 °F 70.5 °F 30.04 in SW 1.8 mph 3.5 mph 56 % 0.00 in
11:49 88.4 °F 68.0 °F 30.05 in SSE 3.1 mph 6.9 mph 51 % 0.00 in
11:54 88.4 °F 70.2 °F 30.05 in South 1.5 mph 4.6 mph 55 % 0.00 in
11:59 88.1 °F 68.3 °F 30.05 in South 2.3 mph 5.8 mph 52 % 0.00 in
12:04 87.4 °F 68.7 °F 30.05 in SW 1.2 mph 3.5 mph 54 % 0.00 in
12:09 86.8 °F 69.2 °F 30.04 in South 1.5 mph 3.5 mph 56 % 0.00 in
12:14 86.1 °F 68.6 °F 30.04 in SSW 1.0 mph 4.6 mph 56 % 0.00 in
12:20 85.9 °F 68.4 °F 30.04 in SSW 3.3 mph 4.6 mph 56 % 0.00 in
12:25 85.8 °F 68.8 °F 30.04 in SE 2.2 mph 8.1 mph 57 % 0.00 in
12:30 85.7 °F 68.2 °F 30.03 in SE 3.2 mph 8.1 mph 56 % 0.00 in
12:35 85.6 °F 70.1 °F 30.04 in SE 2.7 mph 8.1 mph 60 % 0.00 in
12:40 86.1 °F 68.0 °F 30.03 in West 3.0 mph 4.0 mph 55 % 0.00 in
12:45 86.2 °F 67.1 °F 30.03 in SE 0.5 mph 2.3 mph 53 % 0.00 in
12:50 86.1 °F 68.6 °F 30.03 in SSE 2.8 mph 4.6 mph 56 % 0.00 in
12:55 86.1 °F 68.6 °F 30.04 in SSW 2.3 mph 4.6 mph 56 % 0.00 in
13:00 86.5 °F 68.4 °F 30.03 in SW 1.7 mph 5.8 mph 55 % 0.00 in
13:05 87.0 °F 67.2 °F 30.03 in South 3.5 mph 6.9 mph 52 % 0.00 in
13:11 87.4 °F 68.7 °F 30.03 in SSW 2.0 mph 7.0 mph 54 % 0.00 in
13:16 87.8 °F 68.0 °F 30.03 in South 1.0 mph 6.0 mph 52 % 0.00 in
13:21 88.4 °F 69.1 °F 30.03 in South 2.0 mph 6.0 mph 53 % 0.00 in
13:26 88.5 °F 67.4 °F 30.02 in SSW 5.0 mph 8.0 mph 50 % 0.00 in
13:31 88.4 °F 66.2 °F 30.02 in SSW 1.0 mph 3.5 mph 48 % 0.00 in
13:36 88.2 °F 66.6 °F 30.02 in South 3.0 mph 8.0 mph 49 % 0.00 in
13:41 88.3 °F 66.7 °F 30.02 in South 2.0 mph 9.0 mph 49 % 0.00 in
13:46 88.8 °F 70.0 °F 30.02 in SSW 2.4 mph 9.2 mph 54 % 0.00 in
13:51 88.8 °F 64.7 °F 30.02 in South 1.0 mph 5.0 mph 45 % 0.00 in
13:56 88.5 °F 65.7 °F 30.02 in SSW 5.0 mph 9.0 mph 47 % 0.00 in
14:01 88.8 °F 66.6 °F 30.02 in South 1.5 mph 9.2 mph 48 % 0.00 in
14:06 89.0 °F 68.0 °F 30.02 in SSW 2.0 mph 9.0 mph 50 % 0.00 in
14:11 89.3 °F 68.2 °F 30.02 in South 1.0 mph 4.0 mph 50 % 0.00 in
14:16 89.4 °F 65.9 °F 30.02 in SSE 2.6 mph 4.6 mph 46 % 0.00 in
14:21 88.8 °F 67.1 °F 30.02 in SSE 3.0 mph 8.0 mph 49 % 0.00 in
14:26 88.3 °F 66.7 °F 30.02 in SSE 3.0 mph 12.0 mph 49 % 0.00 in
14:31 88.2 °F 66.6 °F 30.02 in SSE 2.2 mph 5.8 mph 49 % 0.00 in
14:36 87.4 °F 66.5 °F 30.02 in SSE 5.0 mph 12.0 mph 50 % 0.00 in
14:41 86.8 °F 67.1 °F 30.02 in SSE 1.0 mph 8.0 mph 52 % 0.00 in
14:46 86.2 °F 66.5 °F 30.02 in SE 5.0 mph 14.0 mph 52 % 0.00 in
14:51 86.0 °F 66.9 °F 30.02 in SSE 3.0 mph 8.0 mph 53 % 0.00 in
14:56 86.4 °F 66.7 °F 30.02 in SSW 1.0 mph 8.0 mph 52 % 0.00 in
15:01 86.5 °F 67.3 °F 30.01 in SSE 5.0 mph 6.0 mph 53 % 0.00 in
15:06 86.2 °F 66.5 °F 30.02 in South 2.0 mph 12.0 mph 52 % 0.00 in
15:11 85.7 °F 66.6 °F 30.02 in South 3.0 mph 7.0 mph 53 % 0.00 in
15:16 85.8 °F 66.1 °F 30.02 in SSW 3.0 mph 12.0 mph 52 % 0.00 in
15:21 85.8 °F 67.8 °F 30.02 in SSW 5.0 mph 13.0 mph 55 % 0.00 in
15:26 85.5 °F 67.0 °F 30.02 in South 3.0 mph 13.0 mph 54 % 0.00 in
15:31 85.6 °F 68.1 °F 30.01 in South 2.0 mph 7.0 mph 56 % 0.00 in
15:36 85.8 °F 67.8 °F 30.01 in SSE 2.0 mph 9.0 mph 55 % 0.00 in
15:41 85.9 °F 67.3 °F 30.01 in South 2.0 mph 8.0 mph 54 % 0.00 in
15:46 85.9 °F 66.8 °F 30.02 in SSE 2.0 mph 7.0 mph 53 % 0.00 in
15:51 85.9 °F 66.8 °F 30.02 in SSE 2.0 mph 8.0 mph 53 % 0.00 in
15:56 85.8 °F 66.7 °F 30.02 in Calm   12.0 mph 53 % 0.00 in
16:01 85.0 °F 66.5 °F 30.01 in SSW 1.8 mph 3.5 mph 54 % 0.00 in
16:06 84.7 °F 66.2 °F 30.01 in South 1.0 mph 10.0 mph 54 % 0.00 in
16:11 84.3 °F 65.8 °F 30.01 in South 2.0 mph 8.0 mph 54 % 0.00 in
16:16 84.1 °F 66.2 °F 30.02 in SSW 2.0 mph 7.0 mph 55 % 0.00 in
16:21 84.0 °F 66.1 °F 30.02 in SSW 3.0 mph 7.0 mph 55 % 0.00 in
16:26 83.8 °F 65.9 °F 30.01 in SSW 2.0 mph 7.0 mph 55 % 0.00 in
16:31 83.6 °F 65.7 °F 30.01 in South 5.0 mph 12.0 mph 55 % 0.00 in
16:36 83.2 °F 65.4 °F 30.01 in SSE 2.0 mph 8.0 mph 55 % 0.00 in
16:41 83.0 °F 66.2 °F 30.01 in SSE 1.0 mph 10.0 mph 57 % 0.00 in
16:46 83.3 °F 67.9 °F 30.01 in South 2.0 mph 7.0 mph 60 % 0.00 in
16:51 83.7 °F 66.3 °F 30.01 in SSW 3.0 mph 7.0 mph 56 % 0.00 in
16:56 84.0 °F 66.1 °F 30.01 in SSW 3.0 mph 10.0 mph 55 % 0.00 in
17:01 84.3 °F 65.3 °F 30.01 in SSW 2.1 mph 5.8 mph 53 % 0.00 in
17:06 84.0 °F 65.0 °F 30.01 in SSW 1.0 mph 8.0 mph 53 % 0.00 in
17:11 83.9 °F 66.0 °F 30.01 in SSW 1.0 mph 7.0 mph 55 % 0.00 in
17:16 84.0 °F 65.5 °F 30.01 in South 3.0 mph 9.0 mph 54 % 0.00 in
17:21 83.6 °F 65.2 °F 30.01 in South 2.0 mph 8.0 mph 54 % 0.00 in
17:26 83.3 °F 64.9 °F 30.00 in SSE 2.0 mph 6.0 mph 54 % 0.00 in
17:31 82.9 °F 65.1 °F 30.00 in South 1.0 mph 5.0 mph 55 % 0.00 in
17:36 82.8 °F 65.5 °F 30.00 in South 2.0 mph 7.0 mph 56 % 0.00 in
17:41 82.7 °F 65.4 °F 30.00 in South 2.0 mph 6.0 mph 56 % 0.00 in
17:46 82.5 °F 65.3 °F 30.00 in South 2.0 mph 7.0 mph 56 % 0.00 in
17:51 82.3 °F 65.0 °F 30.00 in SE 0.8 mph 3.5 mph 56 % 0.00 in
17:56 82.3 °F 66.0 °F 29.99 in South 3.0 mph 7.0 mph 58 % 0.00 in
18:01 82.2 °F 66.0 °F 29.99 in South 1.0 mph 3.5 mph 58 % 0.00 in
18:06 82.2 °F 66.0 °F 29.99 in WSW 3.2 mph 6.9 mph 58 % 0.00 in
18:11 82.2 °F 66.4 °F 29.99 in WSW 0.8 mph 5.0 mph 59 % 0.00 in
18:16 82.2 °F 66.0 °F 29.99 in SSW 2.9 mph 5.8 mph 58 % 0.00 in
18:21 82.1 °F 66.4 °F 29.99 in WSW 3.2 mph 5.0 mph 59 % 0.00 in
18:26 82.1 °F 66.4 °F 29.99 in WSW 0.7 mph 3.5 mph 59 % 0.00 in
18:31 82.0 °F 65.8 °F 29.99 in SW 1.4 mph 5.8 mph 58 % 0.00 in
18:36 81.9 °F 65.7 °F 29.99 in SW 0.6 mph 4.6 mph 58 % 0.00 in
18:41 81.8 °F 65.6 °F 29.99 in SSW 5.0 mph 6.9 mph 58 % 0.00 in
18:46 81.6 °F 65.9 °F 29.99 in West 0.6 mph 4.6 mph 59 % 0.00 in
18:52 81.5 °F 65.3 °F 29.99 in SW 3.0 mph 5.0 mph 58 % 0.00 in
18:57 81.3 °F 65.1 °F 29.99 in South 1.5 mph 4.6 mph 58 % 0.00 in
19:02 81.1 °F 65.4 °F 29.99 in SSW 2.0 mph 3.5 mph 59 % 0.00 in
19:07 80.9 °F 65.7 °F 29.99 in SSE 0.3 mph 3.5 mph 60 % 0.00 in
19:12 80.8 °F 66.1 °F 29.98 in SSW 0.8 mph 3.5 mph 61 % 0.00 in
19:17 80.6 °F 66.4 °F 29.98 in SE 1.0 mph 2.3 mph 62 % 0.00 in
19:22 80.3 °F 66.1 °F 29.98 in SSE 0.6 mph 3.0 mph 62 % 0.00 in
19:27 79.8 °F 65.6 °F 29.98 in SE 0.4 mph 2.3 mph 62 % 0.00 in
19:32 79.7 °F 65.5 °F 29.98 in SSW 1.4 mph 2.3 mph 62 % 0.00 in
19:37 79.6 °F 65.9 °F 29.99 in SW 0.7 mph 2.3 mph 63 % 0.00 in
19:43 79.4 °F 64.8 °F 29.99 in SSE 0.2 mph 5.8 mph 61 % 0.00 in
19:48 79.3 °F 65.6 °F 29.99 in Calm   2.3 mph 63 % 0.00 in
19:53 79.0 °F 65.3 °F 29.99 in South 0.2 mph 1.2 mph 63 % 0.00 in
19:58 78.9 °F 65.7 °F 29.99 in Calm     64 % 0.00 in
20:03 78.7 °F 65.9 °F 30.00 in SE 0.2 mph 1.2 mph 65 % 0.00 in
20:08 78.5 °F 66.2 °F 30.00 in SE 0.2 mph 1.2 mph 66 % 0.00 in
20:13 78.3 °F 66.4 °F 30.00 in SE 0.1 mph 1.2 mph 67 % 0.00 in
20:18 78.2 °F 66.8 °F 29.99 in SE 0.1 mph 1.2 mph 68 % 0.00 in
20:23 78.0 °F 67.0 °F 29.99 in Calm     69 % 0.00 in
20:28 77.8 °F 67.2 °F 29.99 in SSE 1.6 mph 4.0 mph 70 % 0.00 in
20:34 77.5 °F 67.8 °F 30.00 in SE 1.0 mph 3.5 mph 72 % 0.00 in
20:39 77.3 °F 67.6 °F 29.99 in SE 0.1 mph 1.2 mph 72 % 0.00 in
20:44 77.1 °F 68.2 °F 30.00 in SE 2.0 mph 3.5 mph 74 % 0.00 in
20:49 77.0 °F 68.1 °F 29.99 in SSE 1.4 mph 5.0 mph 74 % 0.00 in
20:54 76.8 °F 68.3 °F 30.00 in Calm     75 % 0.00 in
20:59 76.7 °F 68.6 °F 30.00 in SE 0.6 mph 2.3 mph 76 % 0.00 in
21:04 76.6 °F 68.5 °F 30.00 in SE 0.1 mph 3.0 mph 76 % 0.00 in
21:09 76.4 °F 68.7 °F 30.00 in SE 0.7 mph 3.5 mph 77 % 0.00 in
21:14 76.2 °F 68.8 °F 30.00 in SE 2.7 mph 4.6 mph 78 % 0.00 in
21:19 76.0 °F 69.0 °F 30.00 in SE 0.3 mph 3.5 mph 79 % 0.00 in
21:25 75.8 °F 68.8 °F 30.00 in SSE 1.6 mph 5.8 mph 79 % 0.00 in
21:30 75.6 °F 69.4 °F 30.00 in SE 0.4 mph 1.2 mph 81 % 0.00 in
21:35 75.3 °F 69.1 °F 29.99 in SE 1.4 mph 3.5 mph 81 % 0.00 in
21:40 75.2 °F 69.0 °F 29.99 in South 1.4 mph 4.6 mph 81 % 0.00 in
21:45 75.0 °F 68.8 °F 29.99 in ESE 1.6 mph 3.5 mph 81 % 0.00 in
21:50 74.9 °F 69.0 °F 29.99 in SE 0.8 mph 1.2 mph 82 % 0.00 in
21:55 74.7 °F 68.8 °F 29.99 in SE 0.3 mph 1.2 mph 82 % 0.00 in
22:00 74.6 °F 68.7 °F 29.99 in SE 1.7 mph 3.5 mph 82 % 0.00 in
22:05 74.5 °F 69.0 °F 29.98 in SE 1.5 mph 5.8 mph 83 % 0.00 in
22:10 74.4 °F 68.9 °F 29.99 in SE 1.4 mph 3.0 mph 83 % 0.00 in
22:16 74.3 °F 68.8 °F 29.99 in Calm   2.0 mph 83 % 0.00 in
22:21 74.2 °F 68.7 °F 29.99 in SE 0.7 mph 2.3 mph 83 % 0.00 in
22:26 74.2 °F 68.7 °F 29.98 in SE 1.0 mph 4.0 mph 83 % 0.00 in
22:31 74.1 °F 68.6 °F 29.98 in SE 1.0 mph 7.0 mph 83 % 0.00 in
22:36 74.1 °F 68.6 °F 29.98 in Calm   3.0 mph 83 % 0.00 in
22:41 74.0 °F 68.5 °F 29.98 in Calm   4.0 mph 83 % 0.00 in
22:46 74.0 °F 68.9 °F 29.98 in SSE 1.0 mph 8.0 mph 84 % 0.00 in
22:51 74.0 °F 68.9 °F 29.98 in Calm   2.0 mph 84 % 0.00 in
22:56 74.0 °F 68.8 °F 29.98 in Calm   4.0 mph 84 % 0.00 in
23:01 73.9 °F 68.8 °F 29.97 in SE 0.3 mph 3.5 mph 84 % 0.00 in
23:06 73.9 °F 69.1 °F 29.98 in Calm   1.0 mph 85 % 0.00 in
23:11 73.9 °F 69.1 °F 29.98 in SE 0.5 mph 3.5 mph 85 % 0.00 in
23:16 73.8 °F 69.0 °F 29.98 in Calm   1.2 mph 85 % 0.00 in
23:21 73.8 °F 69.0 °F 29.98 in Calm   1.2 mph 85 % 0.00 in
23:26 73.8 °F 69.0 °F 29.97 in SSE 1.0 mph 4.0 mph 85 % 0.00 in
23:31 73.9 °F 69.1 °F 29.97 in SSE 2.9 mph 4.6 mph 85 % 0.00 in
23:36 73.9 °F 69.1 °F 29.97 in SSW 0.5 mph 2.3 mph 85 % 0.00 in
23:41 73.9 °F 69.4 °F 29.97 in SE 0.2 mph 3.5 mph 86 % 0.00 in
23:46 73.9 °F 69.4 °F 29.97 in Calm   1.2 mph 86 % 0.00 in
23:52 73.9 °F 69.4 °F 29.97 in SSE 0.6 mph 2.3 mph 86 % 0.00 in
23:57 73.9 °F 69.4 °F 29.97 in SSE 0.4 mph 3.5 mph 86 % 0.00 in
Crab Meadow Weather
Compliments of Weather Underground - 3 mb

Script developed by  Jim McMurry - jmcmurry@mwt.net Adapted for the template by  Wim van der Kuil - Leuven-Template.eu

Astronomy: One year on Pluto is equal to 248 Earth years.